Victor Harbour, South Australia

1:56 AM ACST on May 30, 2015 (GMT +0930)
Goolwa South | | Change Station
CLOSE
Current Station
Personal Weather Station
Location: Goolwa South, SOUTH AUSTRALIA
Elevation: 22 ft
Nearby Weather Stations

Elev 22 ft 35.51 °S, 138.78 °E | Updated 8 seconds ago

Partly Cloudy
Partly Cloudy
47.5 °F
Feels Like 48 °F
N
1.5
Wind Variable Wind from NNW
Gusts 3.1 mph

Today
High -- | Low -- °F
--% Chance of Precip.
Yesterday
High -- | Low -- °F
Precip. -- in
7:14 AM 5:11 PM
Waxing Gibbous, 84% visible
Pressure 30.21 in
Visibility 6.2 miles
Clouds Few 2200 ft
Windchill 48 °F
Dew Point 46 °F
Humidity 94%
Rainfall 0.00 in
Snow Depth Not available.
UV 0.0 out of 12
Pollen Not available.
Air Quality Not available.
Flu Activity Not available.
METAR YPAD 291600Z 04005KT 9999 FEW022 10/09 Q1023 RMK AUTO VIS CORRECTED

More Conditions Fewer Conditions

Pressure 30.21 in
Visibility 6.2 miles
Clouds Few 2200 ft
Windchill 48 °F
Dew Point 46 °F
Humidity 94%
Rainfall 0.00 in
Snow Depth Not available.
UV 0.0 out of 12
Pollen Not available.
Air Quality Not available.
Flu Activity Not available.
METAR YPAD 291600Z 04005KT 9999 FEW022 10/09 Q1023 RMK AUTO VIS CORRECTED

More Conditions Fewer Conditions

10-Day Weather Forecast

Almanac

Astronomy

May. 30, 2015 Rise Set
Actual Time
Civil Twilight
Nautical Twilight
Astronomical Twilight
Moon
Length of Visible Light
Length of Day
Tomorrow will be .
, % of the Moon is Illuminated

Today's Extremes

Country Highs Country Lows

Community

WunderPhotos

Upload Photos

1,825,300 photos uploaded!

WunderBlogs® & News

Nearby

Air Quality

  Air Quality AQ Index Pollutant
Not available.

Snow Depth

Station Depth Elevation

Earthquake Activity

City Distance Mag. Time & Date
Minimum magnitude displayed is 2.5.

Coastal Water Temperatures

Place Temperature

Stations

Nearby Weather Stations

Station Location Temp. Windchill Dew Point Humidity Wind Precip. Elev Updated Type